Historique des mesures à Cassis (13260), France
Quotidien Résumé Janvier 18, 2018 Unités:  Métrique    US   Métrique/US
« Précédent (Jour)
Suivant (Jour) »
Quotidien Hebdomadaire Mensuel Annuel Période au choix
  Maximum: Minimum: Moyenne:
Température: TemperatureC °C 8.2 °C 9.9 °C
Point de rosée: DewpointC °C -1.9 °C 3.3 °C
Humidité: Humidity % 47 % 60 %
Vitesse du vent: 0 km/h 0 km/h 9.5 km/h
Rafales: 0 km/h - -
Vent:- - WSW
Pression: PressurehPa hPa 1013.4 hPa -
Précipitations: 0.0 mm    
Historical Graphs
 
 
Mesures pour : Janvier 18, 2018
Heure Temperature Point de rosée Pression Vent Vitesse du vent Rafales Humidité Pluie (par heure) Conditions
TemperatureC °C DewpointC °C PressurehPa hPa Calm     Humidity % HourlyPrecipMM mm SoftwareType W/m2
00:12 8.9 °C -1.9 °C 1018.8 hPa NW 26.2 km/h 27.2 km/h 47 % 0.0 mm open2300-1.11 W/m2
01:12 8.4 °C -1.4 °C 1019.2 hPa NNE 8.9 km/h 18.7 km/h 50 % 0.0 mm open2300-1.11 W/m2
02:12 8.2 °C -1.1 °C 1019.2 hPa NW 5.1 km/h 18.7 km/h 52 % 0.0 mm open2300-1.11 W/m2
03:12 8.3 °C -1.3 °C 1019.5 hPa North 7.6 km/h 7.6 km/h 51 % 0.0 mm open2300-1.11 W/m2
04:12 8.8 °C -1.4 °C 1018.8 hPa NW 24.3 km/h 24.3 km/h 49 % 0.0 mm open2300-1.11 W/m2
05:12 8.3 °C -1.1 °C 1018.2 hPa West 10.9 km/h 12.2 km/h 52 % 0.0 mm open2300-1.11 W/m2
06:12 8.6 °C 0.8 °C 1017.8 hPa NW 4.2 km/h 7.6 km/h 58 % 0.0 mm open2300-1.11 W/m2
07:12 8.4 °C 1.1 °C 1018.2 hPa WNW 7.6 km/h 12.7 km/h 60 % 0.0 mm open2300-1.11 W/m2
08:12 8.2 °C 1.3 °C 1018.5 hPa West 9.3 km/h 9.3 km/h 62 % 0.0 mm open2300-1.11 W/m2
10:12 9.9 °C 4.3 °C 1019.2 hPa WNW 4.2 km/h 14.5 km/h 68 % 0.0 mm open2300-1.11 W/m2
11:12 11.2 °C 5.3 °C 1018.8 hPa NNW 20.3 km/h 20.3 km/h 67 % 0.0 mm open2300-1.11 W/m2
12:12 11.8 °C 5.6 °C 1018.2 hPa NW 8 km/h 8.9 km/h 66 % 0.0 mm open2300-1.11 W/m2
13:12 12.4 °C 5.7 °C 1017.2 hPa Calm   33.2 km/h 64 % 0.0 mm open2300-1.11 W/m2
14:12 12.2 °C 5.8 °C 1016.1 hPa WNW 42.2 km/h 51 km/h 65 % 0.0 mm open2300-1.11 W/m2
15:12 12.9 °C 6.4 °C 1015.8 hPa NW 15 km/h 15 km/h 65 % 0.0 mm open2300-1.11 W/m2
16:12 12.4 °C 6.4 °C 1015.5 hPa WNW 17.4 km/h 18.7 km/h 67 % 0.0 mm open2300-1.11 W/m2
17:12 11.9 °C 6.4 °C 1015.1 hPa WSW 7.6 km/h 21.6 km/h 69 % 0.0 mm open2300-1.11 W/m2
18:12 11.6 °C 6.2 °C 1015.1 hPa Calm   10.9 km/h 70 % 0.0 mm open2300-1.11 W/m2
19:12 11.4 °C 6.6 °C 1014.4 hPa Calm     72 % 0.0 mm open2300-1.11 W/m2
20:12 11.4 °C 6.9 °C 1014.4 hPa SSE 2.3 km/h 8 km/h 74 % 0.0 mm open2300-1.11 W/m2
21:12 11.3 °C 6.7 °C 1014.1 hPa Calm     73 % 0.0 mm open2300-1.11 W/m2
22:12 11.0 °C 6.0 °C 1013.8 hPa Calm   2.9 km/h 71 % 0.0 mm open2300-1.11 W/m2
23:12 11.0 °C 5.8 °C 1013.4 hPa West 6.4 km/h 15 km/h 70 % 0.0 mm open2300-1.11 W/m2
Observations météo à CASSIS
WU-History script by Weather Underground - 1 mb